Terminal Aerodrome Forecast
Issued by NWS El Paso, TX

Home | Current Version | Previous Version | Text Only | Print | Product List | Glossary On
Versions: 1 2 3 4 5 6 7 8 9 10 11 12 13
848
FTUS44 KEPZ 211120
TAFELP
TAF
KELP 211120Z 2112/2212 27026G36KT P6SM SCT100
     FM220000 28017G27KT P6SM SCT100
     FM220700 28012KT P6SM SKC=

USA.gov is the U.S. government's official web portal to all federal, state and local government web resources and services.